sensor_id;sensor_type;location;lat;lon;timestamp;temperature;humidity
19970;DHT22;10146;47.754;9.566;2022-12-18T00:01:41;-3.30;99.90
19970;DHT22;10146;47.754;9.566;2022-12-18T00:04:11;-3.30;99.90
19970;DHT22;10146;47.754;9.566;2022-12-18T00:06:40;-3.30;99.90
19970;DHT22;10146;47.754;9.566;2022-12-18T00:09:05;-3.20;99.90
19970;DHT22;10146;47.754;9.566;2022-12-18T00:11:31;-3.30;99.90
19970;DHT22;10146;47.754;9.566;2022-12-18T00:13:58;-3.30;99.90
19970;DHT22;10146;47.754;9.566;2022-12-18T00:16:26;-3.30;99.90
19970;DHT22;10146;47.754;9.566;2022-12-18T00:18:53;-3.30;99.90
19970;DHT22;10146;47.754;9.566;2022-12-18T00:21:20;-3.30;99.90
19970;DHT22;10146;47.754;9.566;2022-12-18T00:23:47;-3.30;99.90
19970;DHT22;10146;47.754;9.566;2022-12-18T00:26:15;-3.30;99.90
19970;DHT22;10146;47.754;9.566;2022-12-18T00:28:42;-3.30;99.90
19970;DHT22;10146;47.754;9.566;2022-12-18T00:31:14;-3.30;99.90
19970;DHT22;10146;47.754;9.566;2022-12-18T00:33:40;-3.20;99.90
19970;DHT22;10146;47.754;9.566;2022-12-18T00:36:22;-3.20;99.90
19970;DHT22;10146;47.754;9.566;2022-12-18T00:38:48;-3.30;99.90
19970;DHT22;10146;47.754;9.566;2022-12-18T00:41:15;-3.20;99.90
19970;DHT22;10146;47.754;9.566;2022-12-18T00:44:05;-3.20;99.90
19970;DHT22;10146;47.754;9.566;2022-12-18T00:46:32;-3.20;99.90
19970;DHT22;10146;47.754;9.566;2022-12-18T00:48:58;-3.20;99.90
19970;DHT22;10146;47.754;9.566;2022-12-18T00:51:24;-3.30;99.90
19970;DHT22;10146;47.754;9.566;2022-12-18T00:53:50;-3.20;99.90
19970;DHT22;10146;47.754;9.566;2022-12-18T00:56:15;-3.20;99.90
19970;DHT22;10146;47.754;9.566;2022-12-18T00:58:41;-3.20;99.90
19970;DHT22;10146;47.754;9.566;2022-12-18T01:01:06;-3.30;99.90
19970;DHT22;10146;47.754;9.566;2022-12-18T01:03:32;-3.20;99.90
19970;DHT22;10146;47.754;9.566;2022-12-18T01:05:58;-3.20;99.90
19970;DHT22;10146;47.754;9.566;2022-12-18T01:08:24;-3.20;99.90
19970;DHT22;10146;47.754;9.566;2022-12-18T01:10:50;-3.20;99.90
19970;DHT22;10146;47.754;9.566;2022-12-18T01:13:15;-3.30;99.90
19970;DHT22;10146;47.754;9.566;2022-12-18T01:15:48;-3.20;99.90
19970;DHT22;10146;47.754;9.566;2022-12-18T01:18:14;-3.30;99.90
19970;DHT22;10146;47.754;9.566;2022-12-18T01:20:40;-3.30;99.90
19970;DHT22;10146;47.754;9.566;2022-12-18T01:23:05;-3.30;99.90
19970;DHT22;10146;47.754;9.566;2022-12-18T01:25:31;-3.30;99.90
19970;DHT22;10146;47.754;9.566;2022-12-18T01:27:56;-3.20;99.90
19970;DHT22;10146;47.754;9.566;2022-12-18T01:30:22;-3.40;99.90
19970;DHT22;10146;47.754;9.566;2022-12-18T01:32:48;-3.40;99.90
19970;DHT22;10146;47.754;9.566;2022-12-18T01:35:13;-3.40;99.90
19970;DHT22;10146;47.754;9.566;2022-12-18T01:37:39;-3.40;99.90
19970;DHT22;10146;47.754;9.566;2022-12-18T01:40:05;-3.40;99.90
19970;DHT22;10146;47.754;9.566;2022-12-18T01:42:31;-3.30;99.90
19970;DHT22;10146;47.754;9.566;2022-12-18T01:45:02;-3.40;99.90
19970;DHT22;10146;47.754;9.566;2022-12-18T01:49:58;-3.30;99.90
19970;DHT22;10146;47.754;9.566;2022-12-18T01:52:26;-3.40;99.90
19970;DHT22;10146;47.754;9.566;2022-12-18T01:54:54;-3.40;99.90
19970;DHT22;10146;47.754;9.566;2022-12-18T01:57:21;-3.40;99.90
19970;DHT22;10146;47.754;9.566;2022-12-18T01:59:50;-3.40;99.90
19970;DHT22;10146;47.754;9.566;2022-12-18T02:02:17;-3.40;99.90
19970;DHT22;10146;47.754;9.566;2022-12-18T02:04:44;-3.50;99.90
19970;DHT22;10146;47.754;9.566;2022-12-18T02:10:06;-3.40;99.90
19970;DHT22;10146;47.754;9.566;2022-12-18T02:12:48;-3.50;99.90
19970;DHT22;10146;47.754;9.566;2022-12-18T02:15:24;-3.50;99.90
19970;DHT22;10146;47.754;9.566;2022-12-18T02:17:58;-3.50;99.90
19970;DHT22;10146;47.754;9.566;2022-12-18T02:20:33;-3.50;99.90
19970;DHT22;10146;47.754;9.566;2022-12-18T02:26:05;-3.40;99.90
19970;DHT22;10146;47.754;9.566;2022-12-18T02:28:35;-3.40;99.90
19970;DHT22;10146;47.754;9.566;2022-12-18T02:31:06;-3.40;99.90
19970;DHT22;10146;47.754;9.566;2022-12-18T02:33:35;-3.40;99.90
19970;DHT22;10146;47.754;9.566;2022-12-18T02:36:01;-3.40;99.90
19970;DHT22;10146;47.754;9.566;2022-12-18T02:38:29;-3.50;99.90
19970;DHT22;10146;47.754;9.566;2022-12-18T02:40:56;-3.50;99.90
19970;DHT22;10146;47.754;9.566;2022-12-18T02:43:22;-3.50;99.90
19970;DHT22;10146;47.754;9.566;2022-12-18T02:45:57;-3.50;99.90
19970;DHT22;10146;47.754;9.566;2022-12-18T02:48:29;-3.40;99.90
19970;DHT22;10146;47.754;9.566;2022-12-18T02:51:37;-3.50;99.90
19970;DHT22;10146;47.754;9.566;2022-12-18T02:54:20;-3.50;99.90
19970;DHT22;10146;47.754;9.566;2022-12-18T02:56:53;-3.60;99.90
19970;DHT22;10146;47.754;9.566;2022-12-18T02:59:33;-3.60;99.90
19970;DHT22;10146;47.754;9.566;2022-12-18T03:04:48;-3.70;99.90
19970;DHT22;10146;47.754;9.566;2022-12-18T03:07:22;-3.60;99.90
19970;DHT22;10146;47.754;9.566;2022-12-18T03:09:50;-3.60;99.90
19970;DHT22;10146;47.754;9.566;2022-12-18T03:12:28;-3.60;99.90
19970;DHT22;10146;47.754;9.566;2022-12-18T03:15:10;-3.70;99.90
19970;DHT22;10146;47.754;9.566;2022-12-18T03:17:41;-3.70;99.90
19970;DHT22;10146;47.754;9.566;2022-12-18T03:20:12;-3.70;99.90
19970;DHT22;10146;47.754;9.566;2022-12-18T03:22:42;-3.70;99.90
19970;DHT22;10146;47.754;9.566;2022-12-18T03:25:11;-3.70;99.90
19970;DHT22;10146;47.754;9.566;2022-12-18T03:27:42;-3.70;99.90
19970;DHT22;10146;47.754;9.566;2022-12-18T03:30:12;-3.60;99.90
19970;DHT22;10146;47.754;9.566;2022-12-18T03:32:56;-3.70;99.90
19970;DHT22;10146;47.754;9.566;2022-12-18T03:35:30;-3.70;99.90
19970;DHT22;10146;47.754;9.566;2022-12-18T03:37:56;-3.60;99.90
19970;DHT22;10146;47.754;9.566;2022-12-18T03:40:29;-3.70;99.90
19970;DHT22;10146;47.754;9.566;2022-12-18T03:43:07;-3.60;99.90
19970;DHT22;10146;47.754;9.566;2022-12-18T03:45:37;-3.70;99.90
19970;DHT22;10146;47.754;9.566;2022-12-18T03:48:39;-3.70;99.90
19970;DHT22;10146;47.754;9.566;2022-12-18T03:51:17;-3.80;99.90
19970;DHT22;10146;47.754;9.566;2022-12-18T03:53:58;-3.80;99.90
19970;DHT22;10146;47.754;9.566;2022-12-18T03:56:28;-3.80;99.90
19970;DHT22;10146;47.754;9.566;2022-12-18T03:58:56;-3.80;99.90
19970;DHT22;10146;47.754;9.566;2022-12-18T04:01:31;-3.80;99.90
19970;DHT22;10146;47.754;9.566;2022-12-18T04:04:00;-3.80;99.90
19970;DHT22;10146;47.754;9.566;2022-12-18T04:06:27;-3.90;99.90
19970;DHT22;10146;47.754;9.566;2022-12-18T04:08:54;-3.80;99.90
19970;DHT22;10146;47.754;9.566;2022-12-18T04:11:19;-3.80;99.90
19970;DHT22;10146;47.754;9.566;2022-12-18T04:13:45;-3.70;99.90
19970;DHT22;10146;47.754;9.566;2022-12-18T04:16:11;-3.80;99.90
19970;DHT22;10146;47.754;9.566;2022-12-18T04:18:36;-3.90;99.90
19970;DHT22;10146;47.754;9.566;2022-12-18T04:21:02;-3.80;99.90
19970;DHT22;10146;47.754;9.566;2022-12-18T04:23:28;-3.80;99.90
19970;DHT22;10146;47.754;9.566;2022-12-18T04:25:54;-3.80;99.90
19970;DHT22;10146;47.754;9.566;2022-12-18T04:28:20;-3.80;99.90
19970;DHT22;10146;47.754;9.566;2022-12-18T04:30:49;-3.80;99.90
19970;DHT22;10146;47.754;9.566;2022-12-18T04:33:15;-3.80;99.90
19970;DHT22;10146;47.754;9.566;2022-12-18T04:35:41;-3.80;99.90
19970;DHT22;10146;47.754;9.566;2022-12-18T04:38:07;-3.80;99.90
19970;DHT22;10146;47.754;9.566;2022-12-18T04:40:36;-3.80;99.90
19970;DHT22;10146;47.754;9.566;2022-12-18T04:43:02;-3.70;99.90
19970;DHT22;10146;47.754;9.566;2022-12-18T04:45:28;-3.80;99.90
19970;DHT22;10146;47.754;9.566;2022-12-18T04:47:53;-3.80;99.90
19970;DHT22;10146;47.754;9.566;2022-12-18T04:50:19;-3.80;99.90
19970;DHT22;10146;47.754;9.566;2022-12-18T04:52:44;-3.80;99.90
19970;DHT22;10146;47.754;9.566;2022-12-18T04:55:10;-3.80;99.90
19970;DHT22;10146;47.754;9.566;2022-12-18T04:57:35;-3.90;99.90
19970;DHT22;10146;47.754;9.566;2022-12-18T05:00:02;-3.90;99.90
19970;DHT22;10146;47.754;9.566;2022-12-18T05:02:28;-3.80;99.90
19970;DHT22;10146;47.754;9.566;2022-12-18T05:04:53;-3.80;99.90
19970;DHT22;10146;47.754;9.566;2022-12-18T05:07:19;-3.90;99.90
19970;DHT22;10146;47.754;9.566;2022-12-18T05:09:45;-3.90;99.90
19970;DHT22;10146;47.754;9.566;2022-12-18T05:12:10;-3.90;99.90
19970;DHT22;10146;47.754;9.566;2022-12-18T05:14:36;-3.90;99.90
19970;DHT22;10146;47.754;9.566;2022-12-18T05:17:01;-3.90;99.90
19970;DHT22;10146;47.754;9.566;2022-12-18T05:19:27;-3.90;99.90
19970;DHT22;10146;47.754;9.566;2022-12-18T05:21:52;-3.90;99.90
19970;DHT22;10146;47.754;9.566;2022-12-18T05:24:18;-3.90;99.90
19970;DHT22;10146;47.754;9.566;2022-12-18T05:26:43;-3.90;99.90
19970;DHT22;10146;47.754;9.566;2022-12-18T05:29:09;-3.80;99.90
19970;DHT22;10146;47.754;9.566;2022-12-18T05:31:38;-3.80;99.90
19970;DHT22;10146;47.754;9.566;2022-12-18T05:34:03;-3.90;99.90
19970;DHT22;10146;47.754;9.566;2022-12-18T05:36:29;-3.90;99.90
19970;DHT22;10146;47.754;9.566;2022-12-18T05:38:54;-3.90;99.90
19970;DHT22;10146;47.754;9.566;2022-12-18T05:41:20;-3.90;99.90
19970;DHT22;10146;47.754;9.566;2022-12-18T05:43:45;-3.90;99.90
19970;DHT22;10146;47.754;9.566;2022-12-18T05:46:13;-3.90;99.90
19970;DHT22;10146;47.754;9.566;2022-12-18T05:48:40;-4.00;99.90
19970;DHT22;10146;47.754;9.566;2022-12-18T05:51:11;-3.90;99.90
19970;DHT22;10146;47.754;9.566;2022-12-18T05:53:37;-3.90;99.90
19970;DHT22;10146;47.754;9.566;2022-12-18T05:56:05;-3.90;99.90
19970;DHT22;10146;47.754;9.566;2022-12-18T05:58:31;-3.90;99.90
19970;DHT22;10146;47.754;9.566;2022-12-18T06:00:58;-4.00;99.90
19970;DHT22;10146;47.754;9.566;2022-12-18T06:03:30;-3.90;99.90
19970;DHT22;10146;47.754;9.566;2022-12-18T06:05:56;-3.80;99.90
19970;DHT22;10146;47.754;9.566;2022-12-18T06:08:21;-3.80;99.90
19970;DHT22;10146;47.754;9.566;2022-12-18T06:10:51;-3.90;99.90
19970;DHT22;10146;47.754;9.566;2022-12-18T06:13:20;-4.00;99.90
19970;DHT22;10146;47.754;9.566;2022-12-18T06:15:46;-4.00;99.90
19970;DHT22;10146;47.754;9.566;2022-12-18T06:18:11;-3.90;99.90
19970;DHT22;10146;47.754;9.566;2022-12-18T06:20:37;-3.90;99.90
19970;DHT22;10146;47.754;9.566;2022-12-18T06:23:05;-3.90;99.90
19970;DHT22;10146;47.754;9.566;2022-12-18T06:25:31;-3.90;99.90
19970;DHT22;10146;47.754;9.566;2022-12-18T06:27:56;-4.00;99.90
19970;DHT22;10146;47.754;9.566;2022-12-18T06:30:22;-4.00;99.90
19970;DHT22;10146;47.754;9.566;2022-12-18T06:32:48;-4.00;99.90
19970;DHT22;10146;47.754;9.566;2022-12-18T06:35:14;-3.90;99.90
19970;DHT22;10146;47.754;9.566;2022-12-18T06:37:41;-3.80;99.90
19970;DHT22;10146;47.754;9.566;2022-12-18T06:40:07;-3.80;99.90
19970;DHT22;10146;47.754;9.566;2022-12-18T06:42:33;-3.80;99.90
19970;DHT22;10146;47.754;9.566;2022-12-18T06:44:58;-3.70;99.90
19970;DHT22;10146;47.754;9.566;2022-12-18T06:47:24;-3.70;99.90
19970;DHT22;10146;47.754;9.566;2022-12-18T06:49:49;-3.80;99.90
19970;DHT22;10146;47.754;9.566;2022-12-18T06:52:15;-3.80;99.90
19970;DHT22;10146;47.754;9.566;2022-12-18T06:54:40;-3.70;99.90
19970;DHT22;10146;47.754;9.566;2022-12-18T06:57:06;-3.80;99.90
19970;DHT22;10146;47.754;9.566;2022-12-18T06:59:32;-3.80;99.90
19970;DHT22;10146;47.754;9.566;2022-12-18T07:01:57;-3.80;99.90
19970;DHT22;10146;47.754;9.566;2022-12-18T07:04:28;-3.70;99.90
19970;DHT22;10146;47.754;9.566;2022-12-18T07:06:53;-3.70;99.90
19970;DHT22;10146;47.754;9.566;2022-12-18T07:09:19;-3.80;99.90
19970;DHT22;10146;47.754;9.566;2022-12-18T07:11:45;-3.80;99.90
19970;DHT22;10146;47.754;9.566;2022-12-18T07:14:10;-3.80;99.90
19970;DHT22;10146;47.754;9.566;2022-12-18T07:16:36;-3.80;99.90
19970;DHT22;10146;47.754;9.566;2022-12-18T07:19:01;-3.70;99.90
19970;DHT22;10146;47.754;9.566;2022-12-18T07:21:27;-3.80;99.90
19970;DHT22;10146;47.754;9.566;2022-12-18T07:23:53;-3.80;99.90
19970;DHT22;10146;47.754;9.566;2022-12-18T07:26:20;-3.80;99.90
19970;DHT22;10146;47.754;9.566;2022-12-18T07:28:46;-3.60;99.90
19970;DHT22;10146;47.754;9.566;2022-12-18T07:31:15;-3.60;99.90
19970;DHT22;10146;47.754;9.566;2022-12-18T07:33:40;-3.70;99.90
19970;DHT22;10146;47.754;9.566;2022-12-18T07:36:07;-3.60;99.90
19970;DHT22;10146;47.754;9.566;2022-12-18T07:38:35;-3.60;99.90
19970;DHT22;10146;47.754;9.566;2022-12-18T07:41:09;-3.70;99.90
19970;DHT22;10146;47.754;9.566;2022-12-18T07:43:35;-3.80;99.90
19970;DHT22;10146;47.754;9.566;2022-12-18T07:46:01;-3.60;99.90
19970;DHT22;10146;47.754;9.566;2022-12-18T07:48:28;-3.70;99.90
19970;DHT22;10146;47.754;9.566;2022-12-18T07:50:55;-3.60;99.90
19970;DHT22;10146;47.754;9.566;2022-12-18T07:53:23;-3.50;99.90
19970;DHT22;10146;47.754;9.566;2022-12-18T07:55:48;-3.50;99.90
19970;DHT22;10146;47.754;9.566;2022-12-18T07:58:14;-3.40;99.90
19970;DHT22;10146;47.754;9.566;2022-12-18T08:00:39;-3.40;99.90
19970;DHT22;10146;47.754;9.566;2022-12-18T08:03:05;-3.40;99.90
19970;DHT22;10146;47.754;9.566;2022-12-18T08:05:30;-3.40;99.90
19970;DHT22;10146;47.754;9.566;2022-12-18T08:07:56;-3.40;99.90
19970;DHT22;10146;47.754;9.566;2022-12-18T08:10:23;-3.40;99.90
19970;DHT22;10146;47.754;9.566;2022-12-18T08:12:50;-3.40;99.90
19970;DHT22;10146;47.754;9.566;2022-12-18T08:15:16;-3.40;99.90
19970;DHT22;10146;47.754;9.566;2022-12-18T08:17:41;-3.40;99.90
19970;DHT22;10146;47.754;9.566;2022-12-18T08:20:08;-3.40;99.90
19970;DHT22;10146;47.754;9.566;2022-12-18T08:22:35;-3.30;99.90
19970;DHT22;10146;47.754;9.566;2022-12-18T08:25:04;-3.30;99.90
19970;DHT22;10146;47.754;9.566;2022-12-18T08:27:30;-3.20;99.90
19970;DHT22;10146;47.754;9.566;2022-12-18T08:29:56;-3.20;99.90
19970;DHT22;10146;47.754;9.566;2022-12-18T08:32:22;-3.20;99.90
19970;DHT22;10146;47.754;9.566;2022-12-18T08:34:47;-3.20;99.90
19970;DHT22;10146;47.754;9.566;2022-12-18T08:37:13;-3.20;99.90
19970;DHT22;10146;47.754;9.566;2022-12-18T08:39:39;-3.30;99.90
19970;DHT22;10146;47.754;9.566;2022-12-18T08:42:04;-3.40;99.90
19970;DHT22;10146;47.754;9.566;2022-12-18T08:44:48;-3.20;99.90
19970;DHT22;10146;47.754;9.566;2022-12-18T08:47:14;-3.20;99.90
19970;DHT22;10146;47.754;9.566;2022-12-18T08:49:39;-3.00;99.90
19970;DHT22;10146;47.754;9.566;2022-12-18T08:52:05;-3.00;99.90
19970;DHT22;10146;47.754;9.566;2022-12-18T08:54:31;-3.00;99.90
19970;DHT22;10146;47.754;9.566;2022-12-18T08:56:56;-3.00;99.90
19970;DHT22;10146;47.754;9.566;2022-12-18T08:59:22;-2.90;99.90
19970;DHT22;10146;47.754;9.566;2022-12-18T09:01:48;-2.90;99.90
19970;DHT22;10146;47.754;9.566;2022-12-18T09:04:14;-2.90;99.90
19970;DHT22;10146;47.754;9.566;2022-12-18T09:06:40;-3.00;99.90
19970;DHT22;10146;47.754;9.566;2022-12-18T09:09:06;-3.00;99.90
19970;DHT22;10146;47.754;9.566;2022-12-18T09:11:32;-2.90;99.90
19970;DHT22;10146;47.754;9.566;2022-12-18T09:14:00;-2.80;99.90
19970;DHT22;10146;47.754;9.566;2022-12-18T09:16:27;-2.80;99.90
19970;DHT22;10146;47.754;9.566;2022-12-18T09:18:54;-2.80;99.90
19970;DHT22;10146;47.754;9.566;2022-12-18T09:21:26;-2.70;99.90
19970;DHT22;10146;47.754;9.566;2022-12-18T09:23:54;-2.70;99.90
19970;DHT22;10146;47.754;9.566;2022-12-18T09:26:21;-2.70;99.90
19970;DHT22;10146;47.754;9.566;2022-12-18T09:28:47;-2.70;99.90
19970;DHT22;10146;47.754;9.566;2022-12-18T09:31:14;-2.80;99.90
19970;DHT22;10146;47.754;9.566;2022-12-18T09:33:40;-2.70;99.90
19970;DHT22;10146;47.754;9.566;2022-12-18T09:36:08;-2.60;99.90
19970;DHT22;10146;47.754;9.566;2022-12-18T09:38:35;-2.60;99.90
19970;DHT22;10146;47.754;9.566;2022-12-18T09:43:37;-2.50;99.90
19970;DHT22;10146;47.754;9.566;2022-12-18T09:46:08;-2.50;99.90
19970;DHT22;10146;47.754;9.566;2022-12-18T09:48:39;-2.50;99.90
19970;DHT22;10146;47.754;9.566;2022-12-18T09:51:38;-2.50;99.90
19970;DHT22;10146;47.754;9.566;2022-12-18T09:54:07;-2.50;99.90
19970;DHT22;10146;47.754;9.566;2022-12-18T09:56:41;-2.40;99.90
19970;DHT22;10146;47.754;9.566;2022-12-18T09:59:24;-2.40;99.90
19970;DHT22;10146;47.754;9.566;2022-12-18T10:01:50;-2.40;99.90
19970;DHT22;10146;47.754;9.566;2022-12-18T10:04:16;-2.30;99.90
19970;DHT22;10146;47.754;9.566;2022-12-18T10:12:31;-2.30;99.90
19970;DHT22;10146;47.754;9.566;2022-12-18T10:18:23;-2.10;99.90
19970;DHT22;10146;47.754;9.566;2022-12-18T10:20:57;-2.20;99.90
19970;DHT22;10146;47.754;9.566;2022-12-18T10:26:15;-2.10;99.90
19970;DHT22;10146;47.754;9.566;2022-12-18T10:28:41;-2.10;99.90
19970;DHT22;10146;47.754;9.566;2022-12-18T10:31:18;-2.10;99.90
19970;DHT22;10146;47.754;9.566;2022-12-18T10:33:45;-2.20;99.90
19970;DHT22;10146;47.754;9.566;2022-12-18T10:36:11;-2.10;99.90
19970;DHT22;10146;47.754;9.566;2022-12-18T10:38:37;-1.90;99.90
19970;DHT22;10146;47.754;9.566;2022-12-18T10:43:44;-2.00;99.90
19970;DHT22;10146;47.754;9.566;2022-12-18T10:51:27;-1.70;99.90
19970;DHT22;10146;47.754;9.566;2022-12-18T10:54:00;-1.70;99.90
19970;DHT22;10146;47.754;9.566;2022-12-18T10:56:28;-1.60;99.90
19970;DHT22;10146;47.754;9.566;2022-12-18T11:01:24;-1.70;99.90
19970;DHT22;10146;47.754;9.566;2022-12-18T11:06:18;-1.50;99.90
19970;DHT22;10146;47.754;9.566;2022-12-18T11:08:57;-1.50;99.90
19970;DHT22;10146;47.754;9.566;2022-12-18T11:11:24;-1.50;99.90
19970;DHT22;10146;47.754;9.566;2022-12-18T11:14:12;-1.40;99.90
19970;DHT22;10146;47.754;9.566;2022-12-18T11:16:44;-1.60;99.90
19970;DHT22;10146;47.754;9.566;2022-12-18T11:21:50;-1.60;99.90
19970;DHT22;10146;47.754;9.566;2022-12-18T11:26:52;-1.60;99.90
19970;DHT22;10146;47.754;9.566;2022-12-18T11:29:23;-1.60;99.90
19970;DHT22;10146;47.754;9.566;2022-12-18T11:31:52;-1.60;99.90
19970;DHT22;10146;47.754;9.566;2022-12-18T11:34:37;-1.60;99.90
19970;DHT22;10146;47.754;9.566;2022-12-18T11:37:03;-1.50;99.90
19970;DHT22;10146;47.754;9.566;2022-12-18T11:39:35;-1.40;99.90
19970;DHT22;10146;47.754;9.566;2022-12-18T11:42:18;-1.30;99.90
19970;DHT22;10146;47.754;9.566;2022-12-18T11:44:54;-1.40;99.90
19970;DHT22;10146;47.754;9.566;2022-12-18T11:47:47;-1.40;99.90
19970;DHT22;10146;47.754;9.566;2022-12-18T11:50:21;-1.50;99.90
19970;DHT22;10146;47.754;9.566;2022-12-18T11:52:49;-1.40;99.90
19970;DHT22;10146;47.754;9.566;2022-12-18T11:55:23;-1.50;99.90
19970;DHT22;10146;47.754;9.566;2022-12-18T12:01:07;-1.50;99.90
19970;DHT22;10146;47.754;9.566;2022-12-18T12:03:56;-1.50;99.90
19970;DHT22;10146;47.754;9.566;2022-12-18T12:17:42;-1.60;99.90
19970;DHT22;10146;47.754;9.566;2022-12-18T12:28:45;-1.60;99.90
19970;DHT22;10146;47.754;9.566;2022-12-18T12:39:36;-1.70;99.90
19970;DHT22;10146;47.754;9.566;2022-12-18T12:42:05;-1.60;99.90
19970;DHT22;10146;47.754;9.566;2022-12-18T12:44:55;-1.70;99.90
19970;DHT22;10146;47.754;9.566;2022-12-18T12:47:30;-1.70;99.90
19970;DHT22;10146;47.754;9.566;2022-12-18T12:49:59;-1.80;99.90
19970;DHT22;10146;47.754;9.566;2022-12-18T12:52:42;-1.80;99.90
19970;DHT22;10146;47.754;9.566;2022-12-18T12:55:18;-1.80;99.90
19970;DHT22;10146;47.754;9.566;2022-12-18T12:58:01;-1.70;99.90
19970;DHT22;10146;47.754;9.566;2022-12-18T13:00:34;-1.80;99.90
19970;DHT22;10146;47.754;9.566;2022-12-18T13:03:11;-1.70;99.90
19970;DHT22;10146;47.754;9.566;2022-12-18T13:05:54;-1.70;99.90
19970;DHT22;10146;47.754;9.566;2022-12-18T13:10:54;-1.70;99.90
19970;DHT22;10146;47.754;9.566;2022-12-18T13:13:49;-1.60;99.90
19970;DHT22;10146;47.754;9.566;2022-12-18T13:16:22;-1.70;99.90
19970;DHT22;10146;47.754;9.566;2022-12-18T13:18:52;-1.70;99.90
19970;DHT22;10146;47.754;9.566;2022-12-18T13:21:29;-1.60;99.90
19970;DHT22;10146;47.754;9.566;2022-12-18T13:23:56;-1.60;99.90
19970;DHT22;10146;47.754;9.566;2022-12-18T13:31:57;-1.40;99.90
19970;DHT22;10146;47.754;9.566;2022-12-18T13:34:27;-1.50;99.90
19970;DHT22;10146;47.754;9.566;2022-12-18T13:39:39;-1.50;99.90
19970;DHT22;10146;47.754;9.566;2022-12-18T13:44:41;-1.60;99.90
19970;DHT22;10146;47.754;9.566;2022-12-18T13:47:34;-1.50;99.90
19970;DHT22;10146;47.754;9.566;2022-12-18T13:50:23;-1.40;99.90
19970;DHT22;10146;47.754;9.566;2022-12-18T13:52:49;-1.50;99.90
19970;DHT22;10146;47.754;9.566;2022-12-18T13:55:18;-1.50;99.90
19970;DHT22;10146;47.754;9.566;2022-12-18T13:57:45;-1.50;99.90
19970;DHT22;10146;47.754;9.566;2022-12-18T14:00:30;-1.60;99.90
19970;DHT22;10146;47.754;9.566;2022-12-18T14:02:57;-1.70;99.90
19970;DHT22;10146;47.754;9.566;2022-12-18T14:05:32;-1.70;99.90
19970;DHT22;10146;47.754;9.566;2022-12-18T14:08:03;-1.70;99.90
19970;DHT22;10146;47.754;9.566;2022-12-18T14:10:30;-1.80;99.90
19970;DHT22;10146;47.754;9.566;2022-12-18T14:13:06;-1.80;99.90
19970;DHT22;10146;47.754;9.566;2022-12-18T14:15:41;-1.90;99.90
19970;DHT22;10146;47.754;9.566;2022-12-18T14:20:59;-1.70;99.90
19970;DHT22;10146;47.754;9.566;2022-12-18T14:23:41;-1.70;99.90
19970;DHT22;10146;47.754;9.566;2022-12-18T14:28:53;-1.90;99.90
19970;DHT22;10146;47.754;9.566;2022-12-18T14:31:24;-1.90;99.90
19970;DHT22;10146;47.754;9.566;2022-12-18T14:33:51;-1.80;99.90
19970;DHT22;10146;47.754;9.566;2022-12-18T14:36:23;-1.80;99.90
19970;DHT22;10146;47.754;9.566;2022-12-18T14:38:51;-1.80;99.90
19970;DHT22;10146;47.754;9.566;2022-12-18T14:41:18;-1.90;99.90
19970;DHT22;10146;47.754;9.566;2022-12-18T14:43:46;-1.90;99.90
19970;DHT22;10146;47.754;9.566;2022-12-18T14:46:35;-1.90;99.90
19970;DHT22;10146;47.754;9.566;2022-12-18T14:49:26;-2.00;99.90
19970;DHT22;10146;47.754;9.566;2022-12-18T14:51:54;-2.00;99.90
19970;DHT22;10146;47.754;9.566;2022-12-18T14:54:22;-2.00;99.90
19970;DHT22;10146;47.754;9.566;2022-12-18T14:56:51;-2.00;99.90
19970;DHT22;10146;47.754;9.566;2022-12-18T14:59:20;-1.90;99.90
19970;DHT22;10146;47.754;9.566;2022-12-18T15:04:37;-2.00;99.90
19970;DHT22;10146;47.754;9.566;2022-12-18T15:07:05;-2.00;99.90
19970;DHT22;10146;47.754;9.566;2022-12-18T15:09:33;-2.00;99.90
19970;DHT22;10146;47.754;9.566;2022-12-18T15:12:00;-2.00;99.90
19970;DHT22;10146;47.754;9.566;2022-12-18T15:14:40;-2.00;99.90
19970;DHT22;10146;47.754;9.566;2022-12-18T15:19:43;-2.00;99.90
19970;DHT22;10146;47.754;9.566;2022-12-18T15:22:27;-2.10;99.90
19970;DHT22;10146;47.754;9.566;2022-12-18T15:24:56;-2.00;99.90
19970;DHT22;10146;47.754;9.566;2022-12-18T15:32:38;-1.80;99.90
19970;DHT22;10146;47.754;9.566;2022-12-18T15:35:23;-1.90;99.90
19970;DHT22;10146;47.754;9.566;2022-12-18T15:37:51;-1.90;99.90
19970;DHT22;10146;47.754;9.566;2022-12-18T15:40:22;-1.90;99.90
19970;DHT22;10146;47.754;9.566;2022-12-18T15:42:48;-2.00;99.90
19970;DHT22;10146;47.754;9.566;2022-12-18T15:45:35;-2.00;99.90
19970;DHT22;10146;47.754;9.566;2022-12-18T15:48:43;-2.10;99.90
19970;DHT22;10146;47.754;9.566;2022-12-18T15:50:59;-2.10;99.90
19970;DHT22;10146;47.754;9.566;2022-12-18T15:53:30;-2.20;99.90
19970;DHT22;10146;47.754;9.566;2022-12-18T15:55:58;-2.10;99.90
19970;DHT22;10146;47.754;9.566;2022-12-18T15:58:42;-2.10;99.90
19970;DHT22;10146;47.754;9.566;2022-12-18T16:01:09;-2.20;99.90
19970;DHT22;10146;47.754;9.566;2022-12-18T16:03:35;-2.30;99.90
19970;DHT22;10146;47.754;9.566;2022-12-18T16:06:01;-2.30;99.90
19970;DHT22;10146;47.754;9.566;2022-12-18T16:08:30;-2.30;99.90
19970;DHT22;10146;47.754;9.566;2022-12-18T16:10:57;-2.30;99.90
19970;DHT22;10146;47.754;9.566;2022-12-18T16:13:23;-2.30;99.90
19970;DHT22;10146;47.754;9.566;2022-12-18T16:15:49;-2.30;99.90
19970;DHT22;10146;47.754;9.566;2022-12-18T16:18:15;-2.30;99.90
19970;DHT22;10146;47.754;9.566;2022-12-18T16:20:40;-2.30;99.90
19970;DHT22;10146;47.754;9.566;2022-12-18T16:23:06;-2.20;99.90
19970;DHT22;10146;47.754;9.566;2022-12-18T16:25:32;-2.10;99.90
19970;DHT22;10146;47.754;9.566;2022-12-18T16:27:58;-2.10;99.90
19970;DHT22;10146;47.754;9.566;2022-12-18T16:30:28;-2.00;99.90
19970;DHT22;10146;47.754;9.566;2022-12-18T16:32:56;-2.10;99.90
19970;DHT22;10146;47.754;9.566;2022-12-18T16:35:24;-2.20;99.90
19970;DHT22;10146;47.754;9.566;2022-12-18T16:37:50;-2.20;99.90
19970;DHT22;10146;47.754;9.566;2022-12-18T16:40:16;-2.20;99.90
19970;DHT22;10146;47.754;9.566;2022-12-18T16:42:44;-2.20;99.90
19970;DHT22;10146;47.754;9.566;2022-12-18T16:45:12;-2.30;99.90
19970;DHT22;10146;47.754;9.566;2022-12-18T16:47:38;-2.30;99.90
19970;DHT22;10146;47.754;9.566;2022-12-18T16:50:05;-2.30;99.90
19970;DHT22;10146;47.754;9.566;2022-12-18T16:52:31;-2.30;99.90
19970;DHT22;10146;47.754;9.566;2022-12-18T16:55:03;-2.20;99.90
19970;DHT22;10146;47.754;9.566;2022-12-18T16:57:29;-2.20;99.90
19970;DHT22;10146;47.754;9.566;2022-12-18T16:59:54;-2.20;99.90
19970;DHT22;10146;47.754;9.566;2022-12-18T17:02:22;-2.30;99.90
19970;DHT22;10146;47.754;9.566;2022-12-18T17:04:49;-2.30;99.90
19970;DHT22;10146;47.754;9.566;2022-12-18T17:07:15;-2.30;99.90
19970;DHT22;10146;47.754;9.566;2022-12-18T17:09:41;-2.40;99.90
19970;DHT22;10146;47.754;9.566;2022-12-18T17:12:07;-2.40;99.90
19970;DHT22;10146;47.754;9.566;2022-12-18T17:14:33;-2.30;99.90
19970;DHT22;10146;47.754;9.566;2022-12-18T17:16:59;-2.50;99.90
19970;DHT22;10146;47.754;9.566;2022-12-18T17:19:25;-2.50;99.90
19970;DHT22;10146;47.754;9.566;2022-12-18T17:21:54;-2.50;99.90
19970;DHT22;10146;47.754;9.566;2022-12-18T17:24:23;-2.60;99.90
19970;DHT22;10146;47.754;9.566;2022-12-18T17:26:51;-2.60;99.90
19970;DHT22;10146;47.754;9.566;2022-12-18T17:29:20;-2.50;99.90